createdAt,value
2018-05-26T00:00:41.782Z,3.37
2018-05-26T00:03:09.263Z,2.97
2018-05-26T00:05:36.767Z,3.00
2018-05-26T00:08:05.017Z,2.80
2018-05-26T00:10:32.499Z,3.00
2018-05-26T00:13:00.773Z,2.60
2018-05-26T00:15:28.275Z,3.10
2018-05-26T00:17:55.761Z,2.70
2018-05-26T00:20:24.024Z,2.50
2018-05-26T00:22:57.264Z,2.47
2018-05-26T00:25:24.783Z,2.80
2018-05-26T00:27:52.269Z,2.30
2018-05-26T00:30:19.748Z,2.47
2018-05-26T00:32:47.280Z,2.50
2018-05-26T00:35:14.773Z,2.60
2018-05-26T00:37:42.252Z,2.60
2018-05-26T00:40:10.534Z,2.50
2018-05-26T00:42:38.015Z,2.60
2018-05-26T00:45:05.501Z,2.60
2018-05-26T00:47:33.004Z,2.50
2018-05-26T00:50:00.484Z,2.43
2018-05-26T00:52:27.977Z,2.77
2018-05-26T00:54:55.474Z,2.60
2018-05-26T00:57:22.956Z,2.30
2018-05-26T00:59:50.464Z,2.47
2018-05-26T01:02:17.955Z,2.60
2018-05-26T01:04:45.452Z,2.20
2018-05-26T01:07:13.728Z,2.20
2018-05-26T01:09:41.218Z,2.70
2018-05-26T01:12:09.458Z,2.60
2018-05-26T01:14:36.946Z,2.60
2018-05-26T01:17:04.438Z,2.40
2018-05-26T01:19:31.915Z,2.87
2018-05-26T01:21:59.420Z,2.47
2018-05-26T01:24:26.903Z,2.70
2018-05-26T01:26:55.154Z,2.47
2018-05-26T01:29:22.664Z,2.77
2018-05-26T01:31:50.155Z,2.57
2018-05-26T01:34:17.648Z,2.63
2018-05-26T01:36:45.153Z,2.30
2018-05-26T01:39:13.401Z,2.20
2018-05-26T01:41:40.906Z,2.37
2018-05-26T01:44:08.412Z,2.33
2018-05-26T01:46:35.886Z,2.60
2018-05-26T01:49:03.368Z,2.40
2018-05-26T01:51:30.858Z,2.50
2018-05-26T01:53:58.332Z,2.50
2018-05-26T01:56:25.821Z,2.50
2018-05-26T01:58:53.323Z,2.60
2018-05-26T02:01:20.825Z,2.53
2018-05-26T02:03:48.319Z,2.40
2018-05-26T02:06:15.818Z,2.00
2018-05-26T02:08:43.329Z,2.30
2018-05-26T02:11:10.807Z,2.53
2018-05-26T02:13:38.305Z,2.30
2018-05-26T02:16:06.565Z,2.33
2018-05-26T02:18:34.057Z,2.20
2018-05-26T02:21:02.313Z,2.63
2018-05-26T02:23:29.800Z,2.50
2018-05-26T02:25:58.082Z,2.77
2018-05-26T02:28:26.373Z,2.57
2018-05-26T02:30:53.863Z,2.17
2018-05-26T02:33:21.353Z,2.47
2018-05-26T02:35:48.851Z,2.70
2018-05-26T02:38:16.339Z,2.50
2018-05-26T02:40:43.810Z,2.47
2018-05-26T02:43:11.306Z,2.70
2018-05-26T02:45:38.792Z,2.40
2018-05-26T02:48:07.058Z,2.50
2018-05-26T02:50:34.544Z,2.27
2018-05-26T02:53:02.800Z,2.20
2018-05-26T02:55:30.302Z,2.57
2018-05-26T02:57:57.785Z,2.47
2018-05-26T03:00:25.266Z,2.83
2018-05-26T03:02:52.758Z,2.70
2018-05-26T03:05:25.799Z,2.60
2018-05-26T03:07:59.106Z,2.47
2018-05-26T03:10:32.318Z,2.30
2018-05-26T03:13:05.633Z,2.90
2018-05-26T03:15:33.114Z,2.23
2018-05-26T03:18:05.184Z,2.40
2018-05-26T03:20:33.449Z,2.63
2018-05-26T03:23:01.700Z,2.40
2018-05-26T03:25:29.194Z,2.63
2018-05-26T03:27:57.436Z,2.60
2018-05-26T03:30:24.919Z,3.00
2018-05-26T03:32:52.422Z,2.87
2018-05-26T03:35:19.922Z,2.30
2018-05-26T03:37:47.413Z,2.60
2018-05-26T03:40:14.907Z,2.67
2018-05-26T03:42:43.158Z,2.70
2018-05-26T03:45:10.631Z,2.60
2018-05-26T03:47:38.896Z,2.70
2018-05-26T03:50:06.375Z,2.50
2018-05-26T03:52:34.619Z,2.60
2018-05-26T03:58:19.559Z,2.50
2018-05-26T04:00:47.046Z,2.00
2018-05-26T04:03:14.525Z,2.27
2018-05-26T04:05:42.058Z,2.47
2018-05-26T04:08:09.533Z,2.60
2018-05-26T04:10:37.011Z,2.90
2018-05-26T04:13:04.516Z,2.67
2018-05-26T04:15:32.021Z,2.60
2018-05-26T04:17:59.525Z,2.90
2018-05-26T04:20:27.792Z,3.17
2018-05-26T04:22:55.275Z,2.60
2018-05-26T04:25:23.522Z,2.67
2018-05-26T04:27:51.015Z,2.63
2018-05-26T04:30:19.251Z,2.60
2018-05-26T04:32:46.730Z,2.37
2018-05-26T04:35:14.239Z,2.60
2018-05-26T04:37:41.721Z,2.90
2018-05-26T04:40:09.199Z,2.50
2018-05-26T04:42:36.696Z,2.67
2018-05-26T04:45:04.191Z,2.80
2018-05-26T04:47:31.672Z,3.13
2018-05-26T04:49:59.187Z,3.30
2018-05-26T04:52:27.452Z,3.10
2018-05-26T04:54:55.761Z,3.10
2018-05-26T04:57:24.057Z,2.80
2018-05-26T04:59:51.535Z,3.27
2018-05-26T05:02:19.020Z,3.20
2018-05-26T05:04:46.504Z,3.40
2018-05-26T05:07:13.986Z,3.07
2018-05-26T05:09:42.263Z,3.60
2018-05-26T05:12:09.742Z,3.27
2018-05-26T05:14:37.998Z,3.00
2018-05-26T05:17:05.498Z,3.30
2018-05-26T05:19:32.993Z,3.40
2018-05-26T05:22:00.472Z,3.07
2018-05-26T05:24:27.959Z,3.27
2018-05-26T05:26:55.451Z,3.00
2018-05-26T05:29:22.938Z,3.23
2018-05-26T05:31:50.435Z,2.90
2018-05-26T05:34:17.937Z,2.90
2018-05-26T05:36:45.424Z,3.00
2018-05-26T05:39:12.933Z,3.13
2018-05-26T05:41:40.430Z,2.63
2018-05-26T05:44:07.913Z,3.30
2018-05-26T05:46:35.421Z,3.33
2018-05-26T05:49:02.910Z,3.60
2018-05-26T05:51:30.399Z,4.03
2018-05-26T05:53:57.903Z,3.90
2018-05-26T05:56:25.384Z,3.50
2018-05-26T05:58:53.645Z,3.43
2018-05-26T06:01:21.168Z,3.47
2018-05-26T06:03:48.662Z,3.60
2018-05-26T06:06:16.148Z,3.63
2018-05-26T06:08:44.414Z,3.80
2018-05-26T06:11:11.909Z,3.27
2018-05-26T06:13:40.158Z,3.20
2018-05-26T06:16:07.676Z,3.00
2018-05-26T06:18:35.185Z,3.07
2018-05-26T06:21:02.666Z,2.70
2018-05-26T06:23:30.944Z,2.53
2018-05-26T06:25:59.196Z,2.87
2018-05-26T06:28:26.682Z,3.37
2018-05-26T06:30:54.184Z,2.90
2018-05-26T06:33:21.672Z,3.70
2018-05-26T06:35:49.179Z,3.80
2018-05-26T06:38:17.478Z,3.80
2018-05-26T06:40:44.964Z,4.03
2018-05-26T06:43:12.444Z,3.60
2018-05-26T06:45:39.950Z,3.90
2018-05-26T06:48:08.204Z,3.77
2018-05-26T06:50:35.684Z,3.70
2018-05-26T06:53:03.187Z,3.90
2018-05-26T06:55:30.683Z,3.17
2018-05-26T06:57:58.167Z,3.50
2018-05-26T07:00:25.674Z,3.33
2018-05-26T07:02:53.163Z,3.53
2018-05-26T07:05:20.666Z,3.70
2018-05-26T07:07:48.943Z,3.47
2018-05-26T07:10:16.430Z,3.90
2018-05-26T07:12:43.921Z,3.70
2018-05-26T07:15:11.435Z,3.50
2018-05-26T07:17:39.687Z,3.80
2018-05-26T07:20:07.177Z,3.17
2018-05-26T07:22:35.435Z,3.20
2018-05-26T07:25:02.935Z,3.13
2018-05-26T07:27:31.213Z,3.50
2018-05-26T07:29:59.473Z,3.30
2018-05-26T07:32:26.971Z,2.73
2018-05-26T07:34:54.477Z,2.80
2018-05-26T07:37:21.966Z,2.73
2018-05-26T07:39:49.457Z,2.60
2018-05-26T07:42:17.746Z,2.97
2018-05-26T07:44:45.241Z,3.00
2018-05-26T07:47:12.772Z,3.17
2018-05-26T07:49:40.247Z,2.87
2018-05-26T07:52:07.749Z,3.27
2018-05-26T07:54:35.255Z,2.73
2018-05-26T07:57:03.500Z,3.00
2018-05-26T07:59:31.004Z,3.10
2018-05-26T08:01:58.495Z,3.10
2018-05-26T08:04:26.002Z,2.90
2018-05-26T08:06:54.271Z,3.00
2018-05-26T08:09:21.773Z,3.13
2018-05-26T08:11:49.284Z,3.03
2018-05-26T08:14:16.786Z,2.73
2018-05-26T08:16:45.064Z,2.70
2018-05-26T08:19:13.323Z,2.67
2018-05-26T08:21:40.828Z,2.43
2018-05-26T08:24:08.344Z,2.50
2018-05-26T08:26:35.847Z,2.70
2018-05-26T08:29:03.354Z,2.67
2018-05-26T08:31:30.869Z,2.83
2018-05-26T08:33:58.359Z,2.60
2018-05-26T08:36:25.857Z,2.47
2018-05-26T08:38:53.355Z,2.77
2018-05-26T08:41:21.603Z,2.53
2018-05-26T08:43:49.104Z,2.60
2018-05-26T08:46:17.367Z,2.70
2018-05-26T08:48:44.839Z,2.97
2018-05-26T08:51:13.091Z,2.83
2018-05-26T08:53:40.580Z,2.70
2018-05-26T08:56:08.076Z,2.57
2018-05-26T08:58:35.600Z,2.10
2018-05-26T09:01:03.867Z,2.47
2018-05-26T09:03:31.370Z,2.23
2018-05-26T09:05:58.885Z,2.13
2018-05-26T09:08:26.413Z,2.47
2018-05-26T09:10:53.919Z,2.30
2018-05-26T09:13:22.207Z,2.80
2018-05-26T09:15:49.693Z,2.43
2018-05-26T09:18:17.194Z,2.50
2018-05-26T09:20:44.695Z,2.80
2018-05-26T09:23:12.184Z,2.63
2018-05-26T09:25:40.446Z,3.20
2018-05-26T09:28:08.726Z,3.17
2018-05-26T09:30:37.000Z,2.80
2018-05-26T09:33:04.488Z,2.70
2018-05-26T09:35:31.996Z,2.50
2018-05-26T09:38:00.260Z,2.50
2018-05-26T09:40:27.761Z,2.40
2018-05-26T09:42:55.260Z,2.30
2018-05-26T09:45:23.512Z,2.53
2018-05-26T09:47:51.000Z,2.67
2018-05-26T09:50:19.272Z,2.50
2018-05-26T09:52:47.530Z,2.43
2018-05-26T09:55:15.020Z,2.60
2018-05-26T09:57:42.516Z,2.67
2018-05-26T10:00:10.013Z,2.50
2018-05-26T10:02:37.526Z,2.87
2018-05-26T10:05:05.017Z,2.53
2018-05-26T10:07:32.496Z,3.50
2018-05-26T10:10:00.007Z,3.27
2018-05-26T10:12:27.497Z,3.00
2018-05-26T10:14:54.975Z,2.70
2018-05-26T10:17:22.489Z,3.00
2018-05-26T10:19:50.750Z,3.27
2018-05-26T10:22:18.241Z,2.53
2018-05-26T10:24:46.494Z,2.70
2018-05-26T10:27:14.075Z,3.00
2018-05-26T10:29:41.592Z,2.73
2018-05-26T10:32:09.107Z,2.60
2018-05-26T10:34:37.395Z,3.00
2018-05-26T10:37:04.893Z,2.77
2018-05-26T10:39:32.383Z,3.30
2018-05-26T10:41:59.891Z,2.90
2018-05-26T10:44:27.383Z,2.87
2018-05-26T10:46:54.867Z,2.80
2018-05-26T10:49:22.379Z,3.10
2018-05-26T10:51:49.870Z,2.70
2018-05-26T10:54:17.360Z,2.60
2018-05-26T10:56:44.859Z,2.80
2018-05-26T10:59:13.108Z,2.73
2018-05-26T11:01:40.617Z,2.30
2018-05-26T11:04:08.135Z,3.10
2018-05-26T11:06:46.387Z,3.00
2018-05-26T11:09:13.927Z,2.80
2018-05-26T11:11:41.438Z,2.97
2018-05-26T11:14:08.933Z,2.50
2018-05-26T11:16:36.493Z,2.70
2018-05-26T11:19:04.033Z,2.90
2018-05-26T11:21:37.502Z,3.40
2018-05-26T11:24:05.283Z,2.70
2018-05-26T11:26:40.431Z,3.00
2018-05-26T11:29:08.788Z,3.00
2018-05-26T11:31:38.622Z,2.80
2018-05-26T11:34:06.123Z,3.10
2018-05-26T11:36:33.656Z,2.90
2018-05-26T11:39:01.281Z,3.10
2018-05-26T11:41:30.727Z,2.90
2018-05-26T11:43:58.297Z,3.17
2018-05-26T11:46:25.896Z,3.60
2018-05-26T11:48:53.426Z,6.27
2018-05-26T11:51:20.926Z,6.33
2018-05-26T11:53:48.436Z,3.77
2018-05-26T11:56:15.949Z,3.67
2018-05-26T11:58:43.444Z,3.90
2018-05-26T12:01:11.754Z,4.00
2018-05-26T12:03:39.286Z,3.53
2018-05-26T12:06:07.550Z,3.80
2018-05-26T12:08:35.090Z,3.70
2018-05-26T12:11:02.633Z,3.50
2018-05-26T12:13:30.862Z,3.60
2018-05-26T12:15:58.341Z,3.20
2018-05-26T12:18:26.614Z,2.90
2018-05-26T12:20:54.890Z,3.63
2018-05-26T12:23:23.151Z,3.77
2018-05-26T12:25:50.644Z,3.97
2018-05-26T12:28:18.941Z,3.57
2018-05-26T12:30:47.381Z,3.70
2018-05-26T12:33:14.907Z,3.60
2018-05-26T12:35:42.451Z,3.27
2018-05-26T12:38:09.961Z,3.40
2018-05-26T12:40:37.463Z,3.10
2018-05-26T12:43:05.752Z,3.83
2018-05-26T12:45:34.017Z,4.00
2018-05-26T12:48:02.276Z,3.70
2018-05-26T12:50:29.811Z,3.50
2018-05-26T12:52:57.324Z,3.60
2018-05-26T12:55:25.576Z,3.20
2018-05-26T12:57:53.095Z,3.33
2018-05-26T13:00:20.576Z,3.73
2018-05-26T13:02:48.066Z,3.50
2018-05-26T13:05:15.569Z,3.20
2018-05-26T13:07:43.822Z,3.20
2018-05-26T13:10:11.322Z,3.20
2018-05-26T13:12:39.656Z,3.10
2018-05-26T13:15:07.164Z,3.00
2018-05-26T13:17:34.676Z,2.67
2018-05-26T13:20:02.196Z,3.33
2018-05-26T13:22:29.708Z,2.90
2018-05-26T13:24:57.198Z,3.13
2018-05-26T13:27:24.712Z,2.93
2018-05-26T13:29:52.220Z,3.17
2018-05-26T13:32:20.485Z,3.30
2018-05-26T13:34:47.997Z,3.03
2018-05-26T13:37:15.513Z,3.30
2018-05-26T13:39:43.024Z,2.80
2018-05-26T13:42:10.535Z,3.23
2018-05-26T13:44:38.041Z,3.00
2018-05-26T13:47:06.329Z,3.40
2018-05-26T13:49:33.859Z,3.20
2018-05-26T13:52:01.366Z,3.00
2018-05-26T13:54:28.999Z,3.10
2018-05-26T13:56:56.383Z,2.70
2018-05-26T13:59:23.893Z,2.90
2018-05-26T14:01:51.401Z,2.90
2018-05-26T14:04:18.917Z,3.43
2018-05-26T14:06:46.425Z,3.03
2018-05-26T14:09:13.926Z,2.90
2018-05-26T14:11:41.427Z,3.00
2018-05-26T14:14:08.947Z,3.23
2018-05-26T14:16:36.493Z,3.23
2018-05-26T14:19:03.959Z,3.17
2018-05-26T14:21:31.497Z,2.73
2018-05-26T14:23:59.771Z,3.13
2018-05-26T14:26:31.268Z,3.10
2018-05-26T14:28:58.767Z,2.77
2018-05-26T14:31:26.283Z,3.23
2018-05-26T14:33:53.805Z,3.03
2018-05-26T14:36:21.359Z,3.20
2018-05-26T14:38:48.863Z,3.22
2018-05-26T14:41:16.380Z,2.92
2018-05-26T14:43:43.887Z,2.92
2018-05-26T14:46:11.409Z,3.15
2018-05-26T14:48:38.925Z,3.03
2018-05-26T14:51:06.422Z,2.97
2018-05-26T14:53:33.931Z,3.20
2018-05-26T14:56:02.217Z,3.00
2018-05-26T14:58:30.523Z,2.72
2018-05-26T15:00:58.005Z,2.90
2018-05-26T15:03:25.535Z,2.67
2018-05-26T15:05:53.055Z,2.87
2018-05-26T15:08:20.570Z,2.87
2018-05-26T15:10:48.088Z,3.00
2018-05-26T15:13:15.705Z,3.03
2018-05-26T15:15:43.113Z,2.90
2018-05-26T15:18:10.621Z,3.33
2018-05-26T15:20:38.144Z,2.97
2018-05-26T15:23:05.666Z,3.10
2018-05-26T15:25:33.184Z,3.35
2018-05-26T15:28:00.696Z,3.05
2018-05-26T15:30:28.198Z,3.20
2018-05-26T15:32:55.724Z,3.42
2018-05-26T15:35:23.250Z,3.60
2018-05-26T15:37:51.521Z,3.28
2018-05-26T15:40:19.789Z,3.45
2018-05-26T15:42:47.305Z,3.28
2018-05-26T15:45:14.807Z,3.53
2018-05-26T15:47:42.310Z,3.30
2018-05-26T15:50:10.587Z,3.30
2018-05-26T15:52:38.099Z,3.45
2018-05-26T15:55:05.597Z,3.42
2018-05-26T15:57:33.100Z,3.47
2018-05-26T16:00:00.654Z,3.33
2018-05-26T16:02:28.127Z,3.60
2018-05-26T16:04:55.623Z,3.70
2018-05-26T16:07:23.127Z,3.70
2018-05-26T16:09:51.408Z,3.80
2018-05-26T16:12:19.675Z,3.90
2018-05-26T16:14:47.939Z,4.00
2018-05-26T16:17:15.449Z,3.60
2018-05-26T16:19:42.957Z,4.07
2018-05-26T16:22:10.453Z,3.67
2018-05-26T16:24:38.705Z,3.57
2018-05-26T16:27:06.208Z,4.37
2018-05-26T16:29:33.697Z,3.97
2018-05-26T16:32:01.193Z,4.00
2018-05-26T16:34:28.710Z,4.07
2018-05-26T16:36:56.204Z,3.70
2018-05-26T16:39:23.732Z,4.03
2018-05-26T16:41:51.219Z,3.83
2018-05-26T16:44:18.704Z,4.00
2018-05-26T16:46:46.223Z,5.43
2018-05-26T16:49:13.737Z,5.67
2018-05-26T16:51:41.245Z,4.50
2018-05-26T16:54:08.746Z,4.00
2018-05-26T16:56:36.225Z,3.80
2018-05-26T16:59:03.733Z,4.07
2018-05-26T17:01:31.231Z,3.80
2018-05-26T17:03:58.735Z,3.80
2018-05-26T17:06:26.998Z,4.40
2018-05-26T17:08:54.488Z,3.90
2018-05-26T17:11:22.733Z,4.00
2018-05-26T17:13:50.243Z,4.10
2018-05-26T17:16:18.505Z,4.67
2018-05-26T17:18:46.762Z,4.50
2018-05-26T17:21:14.265Z,4.80
2018-05-26T17:23:41.777Z,4.17
2018-05-26T17:26:09.260Z,3.87
2018-05-26T17:28:39.903Z,4.13
2018-05-26T17:31:08.159Z,4.13
2018-05-26T17:33:35.672Z,4.13
2018-05-26T17:36:03.181Z,3.93
2018-05-26T17:38:30.680Z,4.90
2018-05-26T17:40:58.961Z,4.20
2018-05-26T17:43:26.523Z,4.23
2018-05-26T17:45:53.972Z,4.03
2018-05-26T17:48:21.471Z,4.10
2018-05-26T17:50:48.961Z,4.37
2018-05-26T17:53:16.455Z,5.03
2018-05-26T17:55:43.949Z,4.80
2018-05-26T17:58:11.470Z,5.00
2018-05-26T18:00:38.968Z,5.70
2018-05-26T18:03:07.233Z,4.80
2018-05-26T18:05:34.734Z,5.10
2018-05-26T18:08:02.221Z,5.10
2018-05-26T18:10:29.711Z,4.30
2018-05-26T18:12:57.214Z,4.07
2018-05-26T18:15:24.708Z,4.13
2018-05-26T18:17:52.214Z,3.93
2018-05-26T18:20:19.696Z,3.97
2018-05-26T18:22:47.952Z,4.17
2018-05-26T18:25:15.464Z,4.13
2018-05-26T18:27:42.952Z,4.20
2018-05-26T18:30:10.451Z,5.00
2018-05-26T18:32:38.732Z,4.67
2018-05-26T18:35:06.211Z,3.97
2018-05-26T18:37:34.468Z,3.97
2018-05-26T18:40:01.969Z,4.13
2018-05-26T18:42:29.475Z,4.57
2018-05-26T18:44:56.955Z,4.13
2018-05-26T18:47:24.446Z,3.63
2018-05-26T18:49:51.932Z,4.53
2018-05-26T18:52:19.435Z,6.90
2018-05-26T18:54:46.928Z,4.60
2018-05-26T18:57:15.183Z,4.90
2018-05-26T18:59:42.685Z,4.33
2018-05-26T19:02:10.174Z,5.07
2018-05-26T19:04:37.672Z,5.00
2018-05-26T19:07:05.177Z,4.93
2018-05-26T19:09:32.670Z,4.60
2018-05-26T19:12:00.165Z,5.03
2018-05-26T19:14:27.675Z,4.47
2018-05-26T19:16:55.160Z,3.97
2018-05-26T19:19:22.647Z,4.80
2018-05-26T19:21:50.146Z,4.40
2018-05-26T19:24:17.628Z,4.53
2018-05-26T19:26:45.140Z,5.03
2018-05-26T19:29:12.647Z,4.03
2018-05-26T19:31:40.147Z,4.07
2018-05-26T19:34:07.653Z,3.70
2018-05-26T19:36:35.168Z,4.57
2018-05-26T19:39:02.665Z,5.37
2018-05-26T19:41:30.943Z,5.23
2018-05-26T19:43:58.473Z,5.20
2018-05-26T19:46:25.946Z,5.20
2018-05-26T19:48:53.463Z,5.43
2018-05-26T19:51:20.958Z,5.03
2018-05-26T19:53:48.452Z,5.30
2018-05-26T19:56:15.959Z,5.93
2018-05-26T19:58:43.463Z,5.37
2018-05-26T20:01:10.959Z,5.47
2018-05-26T20:03:38.467Z,5.67
2018-05-26T20:06:05.969Z,5.40
2018-05-26T20:08:33.459Z,5.40
2018-05-26T20:11:01.734Z,4.70
2018-05-26T20:13:29.224Z,4.00
2018-05-26T20:15:56.748Z,3.93
2018-05-26T20:18:24.244Z,4.10
2018-05-26T20:20:51.740Z,4.23
2018-05-26T20:23:20.008Z,4.77
2018-05-26T20:25:47.498Z,4.70
2018-05-26T20:28:14.994Z,3.87
2018-05-26T20:30:43.252Z,3.93
2018-05-26T20:33:10.754Z,4.00
2018-05-26T20:35:38.240Z,3.43
2018-05-26T20:38:05.747Z,3.70
2018-05-26T20:40:33.233Z,4.13
2018-05-26T20:43:00.729Z,5.00
2018-05-26T20:45:28.230Z,4.87
2018-05-26T20:47:55.723Z,4.47
2018-05-26T20:50:23.975Z,4.13
2018-05-26T20:52:51.467Z,4.50
2018-05-26T20:55:19.715Z,4.77
2018-05-26T20:57:47.221Z,4.83
2018-05-26T21:00:14.723Z,3.70
2018-05-26T21:02:42.211Z,3.20
2018-05-26T21:05:09.734Z,3.73
2018-05-26T21:07:37.225Z,3.83
2018-05-26T21:10:04.721Z,4.03
2018-05-26T21:12:32.999Z,3.67
2018-05-26T21:15:01.273Z,3.50
2018-05-26T21:17:29.543Z,4.53
2018-05-26T21:19:57.044Z,3.90
2018-05-26T21:22:24.551Z,4.00
2018-05-26T21:24:52.062Z,3.90
2018-05-26T21:27:19.579Z,3.93
2018-05-26T21:29:47.055Z,4.30
2018-05-26T21:32:14.561Z,3.70
2018-05-26T21:34:42.064Z,3.77
2018-05-26T21:37:09.573Z,4.10
2018-05-26T21:39:37.073Z,4.20
2018-05-26T21:42:04.586Z,4.20
2018-05-26T21:44:32.860Z,3.97
2018-05-26T21:47:01.143Z,4.03
2018-05-26T21:49:29.416Z,4.43
2018-05-26T21:51:56.908Z,4.50
2018-05-26T21:54:24.421Z,4.20
2018-05-26T21:56:51.925Z,4.50
2018-05-26T21:59:20.188Z,4.63
2018-05-26T22:01:47.703Z,3.80
2018-05-26T22:04:15.198Z,4.20
2018-05-26T22:06:42.682Z,4.53
2018-05-26T22:09:10.958Z,4.13
2018-05-26T22:11:38.446Z,3.90
2018-05-26T22:14:05.949Z,4.60
2018-05-26T22:16:34.220Z,4.60
2018-05-26T22:19:01.711Z,4.20
2018-05-26T22:21:29.245Z,4.57
2018-05-26T22:23:56.722Z,4.30
2018-05-26T22:26:24.202Z,4.00
2018-05-26T22:28:51.708Z,3.73
2018-05-26T22:31:19.205Z,3.33
2018-05-26T22:33:46.691Z,3.67
2018-05-26T22:36:14.192Z,2.90
2018-05-26T22:38:42.458Z,3.33
2018-05-26T22:41:10.709Z,2.87
2018-05-26T22:43:38.985Z,3.10
2018-05-26T22:46:06.468Z,2.57
2018-05-26T22:48:33.960Z,3.10
2018-05-26T22:51:02.219Z,3.20
2018-05-26T22:53:29.730Z,2.67
2018-05-26T22:55:57.221Z,2.57
2018-05-26T22:58:24.737Z,3.07
2018-05-26T23:00:52.227Z,3.03
2018-05-26T23:03:19.703Z,2.40
2018-05-26T23:05:47.232Z,3.10
2018-05-26T23:08:15.475Z,3.00
2018-05-26T23:10:42.958Z,2.43
2018-05-26T23:13:11.237Z,2.73
2018-05-26T23:15:39.497Z,2.73
2018-05-26T23:18:07.222Z,2.73
2018-05-26T23:20:34.743Z,2.67
2018-05-26T23:23:03.019Z,3.20
2018-05-26T23:25:30.518Z,2.97
2018-05-26T23:27:58.016Z,2.50
2018-05-26T23:30:25.503Z,2.53
2018-05-26T23:32:52.999Z,2.13
2018-05-26T23:35:20.483Z,2.10
2018-05-26T23:37:48.006Z,3.10
2018-05-26T23:40:16.299Z,2.90
2018-05-26T23:42:43.804Z,2.50
2018-05-26T23:45:11.305Z,2.60
2018-05-26T23:47:38.820Z,2.40
2018-05-26T23:50:06.312Z,2.07
2018-05-26T23:52:33.815Z,1.60
2018-05-26T23:55:01.342Z,1.57
2018-05-26T23:57:28.836Z,1.80
2018-05-26T23:59:57.096Z,1.70
